TimeEST,TemperatureF,Dew PointF,Humidity,Sea Level PressureIn,VisibilityMPH,Wind Direction,Wind SpeedMPH,Gust SpeedMPH,PrecipitationIn,Events,Conditions,WindDirDegrees,DateUTC
12:53 AM,44.1,37.0,76,29.68,10.0,WNW,6.9,-,N/A,,Overcast,300,2012-11-04 04:53:00
1:53 AM,44.1,37.9,79,29.68,10.0,NW,9.2,-,N/A,,Overcast,310,2012-11-04 05:53:00
1:53 AM,45.0,37.9,76,29.69,10.0,NW,6.9,-,N/A,,Overcast,310,2012-11-04 06:53:00
2:53 AM,45.0,37.0,74,29.69,10.0,NW,9.2,-,N/A,,Overcast,310,2012-11-04 07:53:00
3:53 AM,44.1,37.0,76,29.70,10.0,West,9.2,19.6,N/A,,Overcast,280,2012-11-04 08:53:00
4:31 AM,42.8,35.6,76,29.69,10.0,WNW,12.7,18.4,N/A,,Overcast,290,2012-11-04 09:31:00
4:53 AM,43.0,36.0,76,29.71,10.0,WNW,8.1,17.3,N/A,,Overcast,290,2012-11-04 09:53:00
5:53 AM,42.1,35.1,76,29.73,10.0,NW,11.5,19.6,N/A,,Overcast,310,2012-11-04 10:53:00
6:53 AM,42.1,33.1,70,29.75,10.0,WNW,12.7,18.4,N/A,,Mostly Cloudy,300,2012-11-04 11:53:00
7:53 AM,42.1,33.1,70,29.77,10.0,NW,15.0,19.6,N/A,,Overcast,310,2012-11-04 12:53:00
8:39 AM,42.8,33.8,70,29.75,10.0,NW,11.5,-,N/A,,Overcast,310,2012-11-04 13:39:00
8:53 AM,42.1,33.1,70,29.78,10.0,WNW,10.4,-,N/A,,Overcast,300,2012-11-04 13:53:00
9:53 AM,42.1,32.0,67,29.79,10.0,WNW,12.7,21.9,N/A,,Overcast,290,2012-11-04 14:53:00
10:04 AM,42.8,32.0,66,29.77,10.0,WNW,12.7,20.7,N/A,,Overcast,290,2012-11-04 15:04:00
10:32 AM,42.8,30.2,61,29.77,10.0,NW,13.8,25.3,N/A,,Overcast,320,2012-11-04 15:32:00
10:53 AM,43.0,30.9,62,29.79,10.0,NW,10.4,20.7,N/A,,Overcast,310,2012-11-04 15:53:00
11:53 AM,43.0,30.9,62,29.79,10.0,WNW,11.5,19.6,N/A,,Overcast,290,2012-11-04 16:53:00
12:53 PM,43.0,30.9,62,29.79,10.0,WNW,12.7,26.5,N/A,,Overcast,300,2012-11-04 17:53:00
1:53 PM,42.1,30.9,65,29.79,10.0,NW,13.8,21.9,N/A,,Overcast,310,2012-11-04 18:53:00
2:53 PM,41.0,30.9,67,29.82,10.0,WNW,8.1,16.1,N/A,,Overcast,290,2012-11-04 19:53:00
3:53 PM,39.9,30.0,68,29.83,10.0,WNW,9.2,17.3,N/A,,Overcast,290,2012-11-04 20:53:00
4:53 PM,39.0,30.0,70,29.85,10.0,WNW,11.5,18.4,N/A,,Overcast,300,2012-11-04 21:53:00
5:53 PM,39.0,30.0,70,29.87,10.0,WNW,10.4,17.3,N/A,,Overcast,300,2012-11-04 22:53:00
6:53 PM,39.0,28.9,67,29.88,10.0,WNW,8.1,-,N/A,,Overcast,290,2012-11-04 23:53:00
7:53 PM,37.9,28.9,70,29.89,10.0,West,10.4,17.3,N/A,,Overcast,280,2012-11-05 00:53:00
8:14 PM,37.4,28.4,70,29.87,10.0,WNW,12.7,18.4,N/A,,Overcast,290,2012-11-05 01:14:00
8:53 PM,37.0,28.9,73,29.90,10.0,WNW,9.2,-,N/A,,Overcast,300,2012-11-05 01:53:00
9:53 PM,37.0,28.9,73,29.91,10.0,NW,6.9,-,N/A,,Overcast,310,2012-11-05 02:53:00
10:09 PM,37.4,28.4,70,29.88,10.0,NW,8.1,-,N/A,,Overcast,310,2012-11-05 03:09:00
10:31 PM,35.6,28.4,75,29.88,10.0,NW,8.1,-,N/A,,Overcast,310,2012-11-05 03:31:00
10:53 PM,36.0,28.9,76,29.91,10.0,WNW,4.6,-,N/A,,Overcast,300,2012-11-05 03:53:00